sensor_id;sensor_type;location;lat;lon;timestamp;temperature;humidity
40638;DHT22;26336;44.696;10.622;2024-02-26T00:03:02;8.90;99.90
40638;DHT22;26336;44.696;10.622;2024-02-26T00:06:06;8.90;99.90
40638;DHT22;26336;44.696;10.622;2024-02-26T00:09:10;8.90;99.90
40638;DHT22;26336;44.696;10.622;2024-02-26T00:12:14;9.00;99.90
40638;DHT22;26336;44.696;10.622;2024-02-26T00:15:18;8.90;99.90
40638;DHT22;26336;44.696;10.622;2024-02-26T00:18:21;8.90;99.90
40638;DHT22;26336;44.696;10.622;2024-02-26T00:21:25;9.00;99.90
40638;DHT22;26336;44.696;10.622;2024-02-26T00:24:29;9.00;99.90
40638;DHT22;26336;44.696;10.622;2024-02-26T00:27:33;9.00;99.90
40638;DHT22;26336;44.696;10.622;2024-02-26T00:30:37;9.10;99.90
40638;DHT22;26336;44.696;10.622;2024-02-26T00:33:41;8.80;99.90
40638;DHT22;26336;44.696;10.622;2024-02-26T00:36:44;8.70;99.90
40638;DHT22;26336;44.696;10.622;2024-02-26T00:39:48;8.70;99.90
40638;DHT22;26336;44.696;10.622;2024-02-26T00:42:53;8.60;99.90
40638;DHT22;26336;44.696;10.622;2024-02-26T00:45:56;8.50;99.90
40638;DHT22;26336;44.696;10.622;2024-02-26T00:49:00;8.50;99.90
40638;DHT22;26336;44.696;10.622;2024-02-26T00:52:05;8.50;99.90
40638;DHT22;26336;44.696;10.622;2024-02-26T00:55:09;8.50;99.90
40638;DHT22;26336;44.696;10.622;2024-02-26T00:58:13;8.60;99.90
40638;DHT22;26336;44.696;10.622;2024-02-26T01:01:18;8.70;99.90
40638;DHT22;26336;44.696;10.622;2024-02-26T01:04:22;8.80;99.90
40638;DHT22;26336;44.696;10.622;2024-02-26T01:07:26;8.90;99.90
40638;DHT22;26336;44.696;10.622;2024-02-26T01:10:30;9.00;99.90
40638;DHT22;26336;44.696;10.622;2024-02-26T01:13:34;9.10;99.90
40638;DHT22;26336;44.696;10.622;2024-02-26T01:16:38;8.90;99.90
40638;DHT22;26336;44.696;10.622;2024-02-26T01:19:42;8.70;99.90
40638;DHT22;26336;44.696;10.622;2024-02-26T01:22:47;8.70;99.90
40638;DHT22;26336;44.696;10.622;2024-02-26T01:25:51;8.60;99.90
40638;DHT22;26336;44.696;10.622;2024-02-26T01:28:55;8.40;99.90
40638;DHT22;26336;44.696;10.622;2024-02-26T01:31:59;8.30;99.90
40638;DHT22;26336;44.696;10.622;2024-02-26T01:35:03;8.30;99.90
40638;DHT22;26336;44.696;10.622;2024-02-26T01:38:07;8.20;99.90
40638;DHT22;26336;44.696;10.622;2024-02-26T01:41:11;8.10;99.90
40638;DHT22;26336;44.696;10.622;2024-02-26T01:44:14;8.10;99.90
40638;DHT22;26336;44.696;10.622;2024-02-26T01:47:19;8.00;99.90
40638;DHT22;26336;44.696;10.622;2024-02-26T01:50:24;8.00;99.90
40638;DHT22;26336;44.696;10.622;2024-02-26T01:53:28;8.00;99.90
40638;DHT22;26336;44.696;10.622;2024-02-26T01:56:32;8.10;99.90
40638;DHT22;26336;44.696;10.622;2024-02-26T01:59:37;8.20;99.90
40638;DHT22;26336;44.696;10.622;2024-02-26T02:02:43;8.30;99.90
40638;DHT22;26336;44.696;10.622;2024-02-26T02:05:48;8.50;99.90
40638;DHT22;26336;44.696;10.622;2024-02-26T02:08:54;8.60;99.90
40638;DHT22;26336;44.696;10.622;2024-02-26T02:11:58;8.80;99.90
40638;DHT22;26336;44.696;10.622;2024-02-26T02:15:03;8.80;99.90
40638;DHT22;26336;44.696;10.622;2024-02-26T02:18:08;8.90;99.90
40638;DHT22;26336;44.696;10.622;2024-02-26T02:21:11;9.00;99.90
40638;DHT22;26336;44.696;10.622;2024-02-26T02:24:15;9.00;99.90
40638;DHT22;26336;44.696;10.622;2024-02-26T02:27:20;9.00;99.90
40638;DHT22;26336;44.696;10.622;2024-02-26T02:30:29;9.10;99.90
40638;DHT22;26336;44.696;10.622;2024-02-26T02:33:34;9.10;99.90
40638;DHT22;26336;44.696;10.622;2024-02-26T02:36:59;9.10;99.90
40638;DHT22;26336;44.696;10.622;2024-02-26T02:40:03;9.00;99.90
40638;DHT22;26336;44.696;10.622;2024-02-26T02:43:08;8.90;99.90
40638;DHT22;26336;44.696;10.622;2024-02-26T02:46:12;8.90;99.90
40638;DHT22;26336;44.696;10.622;2024-02-26T02:49:16;8.90;99.90
40638;DHT22;26336;44.696;10.622;2024-02-26T02:52:20;8.90;99.90
40638;DHT22;26336;44.696;10.622;2024-02-26T02:55:25;8.90;99.90
40638;DHT22;26336;44.696;10.622;2024-02-26T02:58:28;8.70;99.90
40638;DHT22;26336;44.696;10.622;2024-02-26T03:01:32;8.70;99.90
40638;DHT22;26336;44.696;10.622;2024-02-26T03:04:36;8.80;99.90
40638;DHT22;26336;44.696;10.622;2024-02-26T03:07:40;8.80;99.90
40638;DHT22;26336;44.696;10.622;2024-02-26T03:10:44;8.90;99.90
40638;DHT22;26336;44.696;10.622;2024-02-26T03:13:48;8.90;99.90
40638;DHT22;26336;44.696;10.622;2024-02-26T03:16:56;9.00;99.90
40638;DHT22;26336;44.696;10.622;2024-02-26T03:19:59;9.00;99.90
40638;DHT22;26336;44.696;10.622;2024-02-26T03:23:04;9.00;99.90
40638;DHT22;26336;44.696;10.622;2024-02-26T03:26:08;9.00;99.90
40638;DHT22;26336;44.696;10.622;2024-02-26T03:29:18;9.00;99.90
40638;DHT22;26336;44.696;10.622;2024-02-26T03:32:22;9.00;99.90
40638;DHT22;26336;44.696;10.622;2024-02-26T03:35:26;9.00;99.90
40638;DHT22;26336;44.696;10.622;2024-02-26T03:38:30;9.00;99.90
40638;DHT22;26336;44.696;10.622;2024-02-26T03:41:34;9.10;99.90
40638;DHT22;26336;44.696;10.622;2024-02-26T03:44:38;9.10;99.90
40638;DHT22;26336;44.696;10.622;2024-02-26T03:47:42;9.00;99.90
40638;DHT22;26336;44.696;10.622;2024-02-26T03:50:46;8.80;99.90
40638;DHT22;26336;44.696;10.622;2024-02-26T03:53:50;8.80;99.90
40638;DHT22;26336;44.696;10.622;2024-02-26T03:56:54;8.80;99.90
40638;DHT22;26336;44.696;10.622;2024-02-26T03:59:58;8.90;99.90
40638;DHT22;26336;44.696;10.622;2024-02-26T04:03:01;8.90;99.90
40638;DHT22;26336;44.696;10.622;2024-02-26T04:06:08;8.90;99.90
40638;DHT22;26336;44.696;10.622;2024-02-26T04:09:14;8.90;99.90
40638;DHT22;26336;44.696;10.622;2024-02-26T04:12:18;8.80;99.90
40638;DHT22;26336;44.696;10.622;2024-02-26T04:15:22;8.80;99.90
40638;DHT22;26336;44.696;10.622;2024-02-26T04:18:26;8.80;99.90
40638;DHT22;26336;44.696;10.622;2024-02-26T04:21:30;8.80;99.90
40638;DHT22;26336;44.696;10.622;2024-02-26T04:24:33;8.80;99.90
40638;DHT22;26336;44.696;10.622;2024-02-26T04:27:39;8.80;99.90
40638;DHT22;26336;44.696;10.622;2024-02-26T04:30:43;8.80;99.90
40638;DHT22;26336;44.696;10.622;2024-02-26T04:33:47;8.80;99.90
40638;DHT22;26336;44.696;10.622;2024-02-26T04:36:51;8.80;99.90
40638;DHT22;26336;44.696;10.622;2024-02-26T04:39:55;8.80;99.90
40638;DHT22;26336;44.696;10.622;2024-02-26T04:42:59;8.80;99.90
40638;DHT22;26336;44.696;10.622;2024-02-26T04:46:03;8.80;99.90
40638;DHT22;26336;44.696;10.622;2024-02-26T04:49:07;8.80;99.90
40638;DHT22;26336;44.696;10.622;2024-02-26T04:52:11;8.90;99.90
40638;DHT22;26336;44.696;10.622;2024-02-26T04:55:15;8.60;99.90
40638;DHT22;26336;44.696;10.622;2024-02-26T04:58:19;8.60;99.90
40638;DHT22;26336;44.696;10.622;2024-02-26T05:01:23;8.70;99.90
40638;DHT22;26336;44.696;10.622;2024-02-26T05:04:27;8.70;99.90
40638;DHT22;26336;44.696;10.622;2024-02-26T05:07:31;8.60;99.90
40638;DHT22;26336;44.696;10.622;2024-02-26T05:10:37;8.60;99.90
40638;DHT22;26336;44.696;10.622;2024-02-26T05:13:43;8.70;99.90
40638;DHT22;26336;44.696;10.622;2024-02-26T05:16:48;8.70;99.90
40638;DHT22;26336;44.696;10.622;2024-02-26T05:19:52;8.70;99.90
40638;DHT22;26336;44.696;10.622;2024-02-26T05:22:56;8.80;99.90
40638;DHT22;26336;44.696;10.622;2024-02-26T05:26:02;8.80;99.90
40638;DHT22;26336;44.696;10.622;2024-02-26T05:29:06;8.90;99.90
40638;DHT22;26336;44.696;10.622;2024-02-26T05:32:10;8.90;99.90
40638;DHT22;26336;44.696;10.622;2024-02-26T05:35:14;8.80;99.90
40638;DHT22;26336;44.696;10.622;2024-02-26T05:38:18;8.40;99.90
40638;DHT22;26336;44.696;10.622;2024-02-26T05:41:22;8.40;99.90
40638;DHT22;26336;44.696;10.622;2024-02-26T05:44:30;8.10;99.90
40638;DHT22;26336;44.696;10.622;2024-02-26T05:47:33;8.00;99.90
40638;DHT22;26336;44.696;10.622;2024-02-26T05:50:37;8.10;99.90
40638;DHT22;26336;44.696;10.622;2024-02-26T05:53:41;8.00;99.90
40638;DHT22;26336;44.696;10.622;2024-02-26T05:56:45;8.00;99.90
40638;DHT22;26336;44.696;10.622;2024-02-26T05:59:49;8.10;99.90
40638;DHT22;26336;44.696;10.622;2024-02-26T06:02:53;8.30;99.90
40638;DHT22;26336;44.696;10.622;2024-02-26T06:05:57;8.30;99.90
40638;DHT22;26336;44.696;10.622;2024-02-26T06:09:01;8.20;99.90
40638;DHT22;26336;44.696;10.622;2024-02-26T06:12:05;8.30;99.90
40638;DHT22;26336;44.696;10.622;2024-02-26T06:15:10;8.30;99.90
40638;DHT22;26336;44.696;10.622;2024-02-26T06:18:14;8.30;99.90
40638;DHT22;26336;44.696;10.622;2024-02-26T06:21:18;8.30;99.90
40638;DHT22;26336;44.696;10.622;2024-02-26T06:24:21;8.50;99.90
40638;DHT22;26336;44.696;10.622;2024-02-26T06:27:26;8.40;99.90
40638;DHT22;26336;44.696;10.622;2024-02-26T06:30:29;8.40;99.90
40638;DHT22;26336;44.696;10.622;2024-02-26T06:33:33;8.20;99.90
40638;DHT22;26336;44.696;10.622;2024-02-26T06:36:37;8.30;99.90
40638;DHT22;26336;44.696;10.622;2024-02-26T06:39:41;8.40;99.90
40638;DHT22;26336;44.696;10.622;2024-02-26T06:42:45;8.60;99.90
40638;DHT22;26336;44.696;10.622;2024-02-26T06:45:49;8.60;99.90
40638;DHT22;26336;44.696;10.622;2024-02-26T06:48:53;8.50;99.90
40638;DHT22;26336;44.696;10.622;2024-02-26T06:51:57;8.20;99.90
40638;DHT22;26336;44.696;10.622;2024-02-26T06:55:01;8.20;99.90
40638;DHT22;26336;44.696;10.622;2024-02-26T06:58:05;8.00;99.90
40638;DHT22;26336;44.696;10.622;2024-02-26T07:01:11;8.20;99.90
40638;DHT22;26336;44.696;10.622;2024-02-26T07:04:15;8.30;99.90
40638;DHT22;26336;44.696;10.622;2024-02-26T07:07:19;8.10;99.90
40638;DHT22;26336;44.696;10.622;2024-02-26T07:10:23;8.30;99.90
40638;DHT22;26336;44.696;10.622;2024-02-26T07:13:27;8.30;99.90
40638;DHT22;26336;44.696;10.622;2024-02-26T07:16:40;8.10;99.90
40638;DHT22;26336;44.696;10.622;2024-02-26T07:19:44;8.00;99.90
40638;DHT22;26336;44.696;10.622;2024-02-26T07:22:48;8.10;99.90
40638;DHT22;26336;44.696;10.622;2024-02-26T07:25:52;8.20;99.90
40638;DHT22;26336;44.696;10.622;2024-02-26T07:28:56;8.00;99.90
40638;DHT22;26336;44.696;10.622;2024-02-26T07:32:00;7.70;99.90
40638;DHT22;26336;44.696;10.622;2024-02-26T07:35:04;7.50;99.90
40638;DHT22;26336;44.696;10.622;2024-02-26T07:38:09;7.40;99.90
40638;DHT22;26336;44.696;10.622;2024-02-26T07:41:13;7.30;99.90
40638;DHT22;26336;44.696;10.622;2024-02-26T07:44:17;7.50;99.90
40638;DHT22;26336;44.696;10.622;2024-02-26T07:47:22;7.60;99.90
40638;DHT22;26336;44.696;10.622;2024-02-26T07:50:26;7.70;99.90
40638;DHT22;26336;44.696;10.622;2024-02-26T07:53:30;7.70;99.90
40638;DHT22;26336;44.696;10.622;2024-02-26T07:56:34;7.60;99.90
40638;DHT22;26336;44.696;10.622;2024-02-26T07:59:40;7.70;99.90
40638;DHT22;26336;44.696;10.622;2024-02-26T08:02:44;7.60;99.90
40638;DHT22;26336;44.696;10.622;2024-02-26T08:05:48;7.50;99.90
40638;DHT22;26336;44.696;10.622;2024-02-26T08:08:52;7.60;99.90
40638;DHT22;26336;44.696;10.622;2024-02-26T08:11:56;7.50;99.90
40638;DHT22;26336;44.696;10.622;2024-02-26T08:15:00;7.40;99.90
40638;DHT22;26336;44.696;10.622;2024-02-26T08:18:05;7.40;99.90
40638;DHT22;26336;44.696;10.622;2024-02-26T08:21:09;7.40;99.90
40638;DHT22;26336;44.696;10.622;2024-02-26T08:24:13;7.50;99.90
40638;DHT22;26336;44.696;10.622;2024-02-26T08:27:17;7.50;99.90
40638;DHT22;26336;44.696;10.622;2024-02-26T08:30:21;7.50;99.90
40638;DHT22;26336;44.696;10.622;2024-02-26T08:33:25;7.60;99.90
40638;DHT22;26336;44.696;10.622;2024-02-26T08:36:33;7.60;99.90
40638;DHT22;26336;44.696;10.622;2024-02-26T08:39:37;7.80;99.90
40638;DHT22;26336;44.696;10.622;2024-02-26T08:42:42;7.70;99.90
40638;DHT22;26336;44.696;10.622;2024-02-26T08:45:46;7.80;99.90
40638;DHT22;26336;44.696;10.622;2024-02-26T08:48:51;7.90;99.90
40638;DHT22;26336;44.696;10.622;2024-02-26T08:51:55;8.00;99.90
40638;DHT22;26336;44.696;10.622;2024-02-26T08:55:00;8.00;99.90
40638;DHT22;26336;44.696;10.622;2024-02-26T08:58:04;8.10;99.90
40638;DHT22;26336;44.696;10.622;2024-02-26T09:01:08;8.10;99.90
40638;DHT22;26336;44.696;10.622;2024-02-26T09:04:12;8.20;99.90
40638;DHT22;26336;44.696;10.622;2024-02-26T09:07:16;8.30;99.90
40638;DHT22;26336;44.696;10.622;2024-02-26T09:10:20;8.30;99.90
40638;DHT22;26336;44.696;10.622;2024-02-26T09:13:24;8.30;99.90
40638;DHT22;26336;44.696;10.622;2024-02-26T09:16:28;8.40;99.90
40638;DHT22;26336;44.696;10.622;2024-02-26T09:19:32;8.40;99.90
40638;DHT22;26336;44.696;10.622;2024-02-26T09:22:36;8.40;99.90
40638;DHT22;26336;44.696;10.622;2024-02-26T09:25:41;8.30;99.90
40638;DHT22;26336;44.696;10.622;2024-02-26T09:28:45;8.20;99.90
40638;DHT22;26336;44.696;10.622;2024-02-26T09:31:49;8.30;99.90
40638;DHT22;26336;44.696;10.622;2024-02-26T09:34:53;8.30;99.90
40638;DHT22;26336;44.696;10.622;2024-02-26T09:37:57;8.40;99.90
40638;DHT22;26336;44.696;10.622;2024-02-26T09:41:01;8.40;99.90
40638;DHT22;26336;44.696;10.622;2024-02-26T09:44:05;8.40;99.90
40638;DHT22;26336;44.696;10.622;2024-02-26T09:47:11;8.40;99.90
40638;DHT22;26336;44.696;10.622;2024-02-26T09:50:18;8.30;99.90
40638;DHT22;26336;44.696;10.622;2024-02-26T09:53:26;8.40;99.90
40638;DHT22;26336;44.696;10.622;2024-02-26T09:56:32;8.40;99.90
40638;DHT22;26336;44.696;10.622;2024-02-26T09:59:39;8.40;99.90
40638;DHT22;26336;44.696;10.622;2024-02-26T10:02:49;8.40;99.90
40638;DHT22;26336;44.696;10.622;2024-02-26T10:05:54;8.40;99.90
40638;DHT22;26336;44.696;10.622;2024-02-26T10:09:00;8.50;99.90
40638;DHT22;26336;44.696;10.622;2024-02-26T10:12:10;8.50;99.90
40638;DHT22;26336;44.696;10.622;2024-02-26T10:15:14;8.60;99.90
40638;DHT22;26336;44.696;10.622;2024-02-26T10:18:18;8.60;99.90
40638;DHT22;26336;44.696;10.622;2024-02-26T10:21:23;8.60;99.90
40638;DHT22;26336;44.696;10.622;2024-02-26T10:24:28;8.60;99.90
40638;DHT22;26336;44.696;10.622;2024-02-26T10:27:32;8.60;99.90
40638;DHT22;26336;44.696;10.622;2024-02-26T10:30:36;8.60;99.90
40638;DHT22;26336;44.696;10.622;2024-02-26T10:33:42;8.60;99.90
40638;DHT22;26336;44.696;10.622;2024-02-26T10:36:47;8.60;99.90
40638;DHT22;26336;44.696;10.622;2024-02-26T10:39:51;8.60;99.90
40638;DHT22;26336;44.696;10.622;2024-02-26T10:42:55;8.70;99.90
40638;DHT22;26336;44.696;10.622;2024-02-26T10:45:59;8.70;99.90
40638;DHT22;26336;44.696;10.622;2024-02-26T10:49:04;8.70;99.90
40638;DHT22;26336;44.696;10.622;2024-02-26T10:52:09;8.80;99.90
40638;DHT22;26336;44.696;10.622;2024-02-26T10:55:16;8.90;99.90
40638;DHT22;26336;44.696;10.622;2024-02-26T10:58:22;8.90;99.90
40638;DHT22;26336;44.696;10.622;2024-02-26T11:01:27;9.00;99.90
40638;DHT22;26336;44.696;10.622;2024-02-26T11:04:33;9.00;99.90
40638;DHT22;26336;44.696;10.622;2024-02-26T11:07:37;9.00;99.90
40638;DHT22;26336;44.696;10.622;2024-02-26T11:10:42;9.10;99.90
40638;DHT22;26336;44.696;10.622;2024-02-26T11:13:47;9.10;99.90
40638;DHT22;26336;44.696;10.622;2024-02-26T11:16:55;9.10;99.90
40638;DHT22;26336;44.696;10.622;2024-02-26T11:19:59;9.00;99.90
40638;DHT22;26336;44.696;10.622;2024-02-26T11:23:04;9.00;99.90
40638;DHT22;26336;44.696;10.622;2024-02-26T11:26:10;9.00;99.90
40638;DHT22;26336;44.696;10.622;2024-02-26T11:29:19;9.10;99.90
40638;DHT22;26336;44.696;10.622;2024-02-26T11:32:26;9.00;99.90
40638;DHT22;26336;44.696;10.622;2024-02-26T11:35:30;9.00;99.90
40638;DHT22;26336;44.696;10.622;2024-02-26T11:38:34;9.00;99.90
40638;DHT22;26336;44.696;10.622;2024-02-26T11:41:38;9.10;99.90
40638;DHT22;26336;44.696;10.622;2024-02-26T11:44:42;9.00;99.90
40638;DHT22;26336;44.696;10.622;2024-02-26T11:47:56;9.00;99.90
40638;DHT22;26336;44.696;10.622;2024-02-26T11:51:00;9.00;99.90
40638;DHT22;26336;44.696;10.622;2024-02-26T11:54:04;9.10;99.90
40638;DHT22;26336;44.696;10.622;2024-02-26T12:00:25;9.10;99.90
40638;DHT22;26336;44.696;10.622;2024-02-26T12:03:31;9.10;99.90
40638;DHT22;26336;44.696;10.622;2024-02-26T12:06:46;9.10;99.90
40638;DHT22;26336;44.696;10.622;2024-02-26T12:09:51;9.10;99.90
40638;DHT22;26336;44.696;10.622;2024-02-26T12:12:59;9.20;99.90
40638;DHT22;26336;44.696;10.622;2024-02-26T12:16:06;9.20;99.90
40638;DHT22;26336;44.696;10.622;2024-02-26T12:19:10;9.20;99.90
40638;DHT22;26336;44.696;10.622;2024-02-26T12:22:14;9.30;99.90
40638;DHT22;26336;44.696;10.622;2024-02-26T12:25:22;9.30;99.90
40638;DHT22;26336;44.696;10.622;2024-02-26T12:28:29;9.40;99.90
40638;DHT22;26336;44.696;10.622;2024-02-26T12:31:34;9.50;99.90
40638;DHT22;26336;44.696;10.622;2024-02-26T12:34:40;9.50;99.90
40638;DHT22;26336;44.696;10.622;2024-02-26T12:37:45;9.50;99.90
40638;DHT22;26336;44.696;10.622;2024-02-26T12:40:50;9.50;99.90
40638;DHT22;26336;44.696;10.622;2024-02-26T12:43:57;9.60;99.90
40638;DHT22;26336;44.696;10.622;2024-02-26T12:47:03;9.60;99.90
40638;DHT22;26336;44.696;10.622;2024-02-26T12:50:09;9.60;99.90
40638;DHT22;26336;44.696;10.622;2024-02-26T12:53:13;9.60;99.90
40638;DHT22;26336;44.696;10.622;2024-02-26T12:56:18;9.60;99.90
40638;DHT22;26336;44.696;10.622;2024-02-26T12:59:22;9.60;99.90
40638;DHT22;26336;44.696;10.622;2024-02-26T13:02:26;9.60;99.90
40638;DHT22;26336;44.696;10.622;2024-02-26T13:05:31;9.70;99.90
40638;DHT22;26336;44.696;10.622;2024-02-26T13:08:35;9.70;99.90
40638;DHT22;26336;44.696;10.622;2024-02-26T13:11:42;9.70;99.90
40638;DHT22;26336;44.696;10.622;2024-02-26T13:14:47;9.80;99.90
40638;DHT22;26336;44.696;10.622;2024-02-26T13:17:51;9.90;99.90
40638;DHT22;26336;44.696;10.622;2024-02-26T13:21:11;9.90;99.90
40638;DHT22;26336;44.696;10.622;2024-02-26T13:24:16;10.00;99.90
40638;DHT22;26336;44.696;10.622;2024-02-26T13:27:25;10.00;99.90
40638;DHT22;26336;44.696;10.622;2024-02-26T13:30:29;10.10;99.90
40638;DHT22;26336;44.696;10.622;2024-02-26T13:33:38;10.20;99.90
40638;DHT22;26336;44.696;10.622;2024-02-26T13:36:45;10.20;99.90
40638;DHT22;26336;44.696;10.622;2024-02-26T13:39:49;10.20;99.90
40638;DHT22;26336;44.696;10.622;2024-02-26T13:42:53;10.20;99.90
40638;DHT22;26336;44.696;10.622;2024-02-26T13:45:57;10.20;99.90
40638;DHT22;26336;44.696;10.622;2024-02-26T13:49:00;10.20;99.90
40638;DHT22;26336;44.696;10.622;2024-02-26T13:52:04;10.20;99.90
40638;DHT22;26336;44.696;10.622;2024-02-26T13:55:08;10.20;99.90
40638;DHT22;26336;44.696;10.622;2024-02-26T13:58:13;10.30;99.90
40638;DHT22;26336;44.696;10.622;2024-02-26T14:01:18;10.20;99.90
40638;DHT22;26336;44.696;10.622;2024-02-26T14:04:21;10.20;99.90
40638;DHT22;26336;44.696;10.622;2024-02-26T14:07:25;10.20;99.90
40638;DHT22;26336;44.696;10.622;2024-02-26T14:10:29;10.20;99.90
40638;DHT22;26336;44.696;10.622;2024-02-26T14:13:34;10.20;99.90
40638;DHT22;26336;44.696;10.622;2024-02-26T14:16:38;10.20;99.90
40638;DHT22;26336;44.696;10.622;2024-02-26T14:19:42;10.20;99.90
40638;DHT22;26336;44.696;10.622;2024-02-26T14:22:51;10.20;99.90
40638;DHT22;26336;44.696;10.622;2024-02-26T14:25:58;10.20;99.90
40638;DHT22;26336;44.696;10.622;2024-02-26T14:29:03;10.30;99.90
40638;DHT22;26336;44.696;10.622;2024-02-26T14:32:08;10.30;99.90
40638;DHT22;26336;44.696;10.622;2024-02-26T14:35:12;10.30;99.90
40638;DHT22;26336;44.696;10.622;2024-02-26T14:38:16;10.30;99.90
40638;DHT22;26336;44.696;10.622;2024-02-26T14:41:20;10.20;99.90
40638;DHT22;26336;44.696;10.622;2024-02-26T14:44:24;10.30;99.90
40638;DHT22;26336;44.696;10.622;2024-02-26T14:47:28;10.30;99.90
40638;DHT22;26336;44.696;10.622;2024-02-26T14:50:32;10.30;99.90
40638;DHT22;26336;44.696;10.622;2024-02-26T14:53:36;10.40;99.90
40638;DHT22;26336;44.696;10.622;2024-02-26T14:56:40;10.40;99.90
40638;DHT22;26336;44.696;10.622;2024-02-26T14:59:45;10.40;99.90
40638;DHT22;26336;44.696;10.622;2024-02-26T15:02:49;10.40;99.90
40638;DHT22;26336;44.696;10.622;2024-02-26T15:05:53;10.40;99.90
40638;DHT22;26336;44.696;10.622;2024-02-26T15:08:57;10.40;99.90
40638;DHT22;26336;44.696;10.622;2024-02-26T15:12:01;10.40;99.90
40638;DHT22;26336;44.696;10.622;2024-02-26T15:15:06;10.40;99.90
40638;DHT22;26336;44.696;10.622;2024-02-26T15:18:11;10.40;99.90
40638;DHT22;26336;44.696;10.622;2024-02-26T15:21:19;10.30;99.90
40638;DHT22;26336;44.696;10.622;2024-02-26T15:24:23;10.20;99.90
40638;DHT22;26336;44.696;10.622;2024-02-26T15:27:26;10.30;99.90
40638;DHT22;26336;44.696;10.622;2024-02-26T15:30:30;10.30;99.90
40638;DHT22;26336;44.696;10.622;2024-02-26T15:33:36;10.20;99.90
40638;DHT22;26336;44.696;10.622;2024-02-26T15:36:41;10.30;99.90
40638;DHT22;26336;44.696;10.622;2024-02-26T15:39:45;10.30;99.90
40638;DHT22;26336;44.696;10.622;2024-02-26T15:42:49;10.20;99.90
40638;DHT22;26336;44.696;10.622;2024-02-26T15:45:53;10.20;99.90
40638;DHT22;26336;44.696;10.622;2024-02-26T15:48:57;10.20;99.90
40638;DHT22;26336;44.696;10.622;2024-02-26T15:52:02;10.20;99.90
40638;DHT22;26336;44.696;10.622;2024-02-26T15:55:11;10.30;99.90
40638;DHT22;26336;44.696;10.622;2024-02-26T15:58:16;10.20;99.90
40638;DHT22;26336;44.696;10.622;2024-02-26T16:01:20;10.10;99.90
40638;DHT22;26336;44.696;10.622;2024-02-26T16:04:24;10.20;99.90
40638;DHT22;26336;44.696;10.622;2024-02-26T16:07:32;10.20;99.90
40638;DHT22;26336;44.696;10.622;2024-02-26T16:10:38;10.20;99.90
40638;DHT22;26336;44.696;10.622;2024-02-26T16:13:43;10.10;99.90
40638;DHT22;26336;44.696;10.622;2024-02-26T16:16:53;10.00;99.90
40638;DHT22;26336;44.696;10.622;2024-02-26T16:19:59;10.00;99.90
40638;DHT22;26336;44.696;10.622;2024-02-26T16:23:03;10.00;99.90
40638;DHT22;26336;44.696;10.622;2024-02-26T16:26:10;9.80;99.90
40638;DHT22;26336;44.696;10.622;2024-02-26T16:29:14;9.80;99.90
40638;DHT22;26336;44.696;10.622;2024-02-26T16:32:20;9.80;99.90
40638;DHT22;26336;44.696;10.622;2024-02-26T16:35:24;9.80;99.90
40638;DHT22;26336;44.696;10.622;2024-02-26T16:38:28;9.80;99.90
40638;DHT22;26336;44.696;10.622;2024-02-26T16:41:35;9.80;99.90
40638;DHT22;26336;44.696;10.622;2024-02-26T16:44:39;9.70;99.90
40638;DHT22;26336;44.696;10.622;2024-02-26T16:47:44;9.60;99.90
40638;DHT22;26336;44.696;10.622;2024-02-26T16:50:48;9.60;99.90
40638;DHT22;26336;44.696;10.622;2024-02-26T16:53:53;9.60;99.90
40638;DHT22;26336;44.696;10.622;2024-02-26T16:56:57;9.60;99.90
40638;DHT22;26336;44.696;10.622;2024-02-26T17:00:01;9.60;99.90
40638;DHT22;26336;44.696;10.622;2024-02-26T17:03:05;9.50;99.90
40638;DHT22;26336;44.696;10.622;2024-02-26T17:06:09;9.50;99.90
40638;DHT22;26336;44.696;10.622;2024-02-26T17:09:13;9.40;99.90
40638;DHT22;26336;44.696;10.622;2024-02-26T17:12:17;9.40;99.90
40638;DHT22;26336;44.696;10.622;2024-02-26T17:15:21;9.30;99.90
40638;DHT22;26336;44.696;10.622;2024-02-26T17:18:25;9.30;99.90
40638;DHT22;26336;44.696;10.622;2024-02-26T17:21:30;9.40;99.90
40638;DHT22;26336;44.696;10.622;2024-02-26T17:24:33;9.30;99.90
40638;DHT22;26336;44.696;10.622;2024-02-26T17:27:37;9.30;99.90
40638;DHT22;26336;44.696;10.622;2024-02-26T17:30:41;9.20;99.90
40638;DHT22;26336;44.696;10.622;2024-02-26T17:33:47;9.30;99.90
40638;DHT22;26336;44.696;10.622;2024-02-26T17:36:52;9.20;99.90
40638;DHT22;26336;44.696;10.622;2024-02-26T17:39:56;9.20;99.90
40638;DHT22;26336;44.696;10.622;2024-02-26T17:43:00;9.10;99.90
40638;DHT22;26336;44.696;10.622;2024-02-26T17:46:04;9.10;99.90
40638;DHT22;26336;44.696;10.622;2024-02-26T17:49:08;9.10;99.90
40638;DHT22;26336;44.696;10.622;2024-02-26T17:52:13;9.10;99.90
40638;DHT22;26336;44.696;10.622;2024-02-26T17:55:17;9.10;99.90
40638;DHT22;26336;44.696;10.622;2024-02-26T17:58:22;9.30;99.90
40638;DHT22;26336;44.696;10.622;2024-02-26T18:01:26;9.20;99.90
40638;DHT22;26336;44.696;10.622;2024-02-26T18:04:30;9.20;99.90
40638;DHT22;26336;44.696;10.622;2024-02-26T18:07:35;9.20;99.90
40638;DHT22;26336;44.696;10.622;2024-02-26T18:10:38;9.20;99.90
40638;DHT22;26336;44.696;10.622;2024-02-26T18:13:42;9.20;99.90
40638;DHT22;26336;44.696;10.622;2024-02-26T18:16:48;9.30;99.90
40638;DHT22;26336;44.696;10.622;2024-02-26T18:19:52;9.40;99.90
40638;DHT22;26336;44.696;10.622;2024-02-26T18:22:56;9.40;99.90
40638;DHT22;26336;44.696;10.622;2024-02-26T18:26:00;9.40;99.90
40638;DHT22;26336;44.696;10.622;2024-02-26T18:29:04;9.40;99.90
40638;DHT22;26336;44.696;10.622;2024-02-26T18:32:09;9.40;99.90
40638;DHT22;26336;44.696;10.622;2024-02-26T18:35:13;9.50;99.90
40638;DHT22;26336;44.696;10.622;2024-02-26T18:38:17;9.50;99.90
40638;DHT22;26336;44.696;10.622;2024-02-26T18:41:21;9.50;99.90
40638;DHT22;26336;44.696;10.622;2024-02-26T18:44:26;9.50;99.90
40638;DHT22;26336;44.696;10.622;2024-02-26T18:47:32;9.50;99.90
40638;DHT22;26336;44.696;10.622;2024-02-26T18:50:36;9.40;99.90
40638;DHT22;26336;44.696;10.622;2024-02-26T18:53:40;9.40;99.90
40638;DHT22;26336;44.696;10.622;2024-02-26T18:56:44;9.40;99.90
40638;DHT22;26336;44.696;10.622;2024-02-26T18:59:49;9.40;99.90
40638;DHT22;26336;44.696;10.622;2024-02-26T19:02:53;9.30;99.90
40638;DHT22;26336;44.696;10.622;2024-02-26T19:05:58;9.40;99.90
40638;DHT22;26336;44.696;10.622;2024-02-26T19:09:02;9.40;99.90
40638;DHT22;26336;44.696;10.622;2024-02-26T19:12:06;9.40;99.90
40638;DHT22;26336;44.696;10.622;2024-02-26T19:15:11;9.40;99.90
40638;DHT22;26336;44.696;10.622;2024-02-26T19:18:20;9.50;99.90
40638;DHT22;26336;44.696;10.622;2024-02-26T19:21:24;9.50;99.90
40638;DHT22;26336;44.696;10.622;2024-02-26T19:24:28;9.50;99.90
40638;DHT22;26336;44.696;10.622;2024-02-26T19:27:32;9.60;99.90